createdAt,value
2019-03-24T00:00:04.824Z,62.53
2019-03-24T00:02:33.396Z,62.33
2019-03-24T00:05:01.891Z,61.03
2019-03-24T00:07:30.412Z,59.63
2019-03-24T00:09:58.895Z,57.40
2019-03-24T00:12:27.396Z,62.83
2019-03-24T00:14:55.904Z,60.10
2019-03-24T00:17:24.490Z,64.50
2019-03-24T00:19:52.947Z,60.87
2019-03-24T00:22:21.422Z,55.40
2019-03-24T00:24:49.948Z,61.37
2019-03-24T00:27:18.437Z,63.60
2019-03-24T00:29:46.955Z,55.73
2019-03-24T00:32:15.439Z,49.23
2019-03-24T00:34:43.935Z,56.23
2019-03-24T00:37:12.417Z,50.90
2019-03-24T00:39:40.918Z,45.33
2019-03-24T00:42:09.382Z,45.80
2019-03-24T00:44:37.894Z,49.70
2019-03-24T00:47:06.442Z,45.63
2019-03-24T00:49:35.005Z,43.13
2019-03-24T00:52:04.621Z,48.47
2019-03-24T00:54:33.105Z,39.70
2019-03-24T00:57:01.592Z,42.03
2019-03-24T00:59:30.133Z,42.13
2019-03-24T01:01:58.628Z,41.67
2019-03-24T01:04:27.142Z,42.63
2019-03-24T01:06:55.622Z,35.07
2019-03-24T01:09:24.301Z,36.80
2019-03-24T01:11:52.771Z,37.63
2019-03-24T01:14:21.282Z,40.53
2019-03-24T01:16:49.761Z,37.57
2019-03-24T01:19:18.241Z,35.97
2019-03-24T01:21:46.879Z,38.97
2019-03-24T01:24:15.383Z,42.53
2019-03-24T01:26:43.864Z,38.23
2019-03-24T01:29:12.353Z,42.93
2019-03-24T01:31:40.856Z,41.97
2019-03-24T01:34:09.357Z,44.13
2019-03-24T01:36:37.878Z,42.37
2019-03-24T01:39:07.827Z,37.80
2019-03-24T01:41:36.313Z,36.27
2019-03-24T01:44:05.386Z,30.67
2019-03-24T01:46:33.860Z,36.67
2019-03-24T01:49:02.367Z,33.60
2019-03-24T01:51:30.854Z,39.73
2019-03-24T01:53:59.362Z,36.73
2019-03-24T01:56:27.818Z,38.33
2019-03-24T01:58:56.346Z,40.53
2019-03-24T02:01:24.997Z,39.20
2019-03-24T02:03:53.482Z,41.43
2019-03-24T02:06:21.975Z,40.63
2019-03-24T02:08:50.468Z,37.27
2019-03-24T02:11:19.006Z,44.60
2019-03-24T02:13:47.460Z,36.77
2019-03-24T02:16:15.970Z,37.23
2019-03-24T02:18:44.442Z,37.80
2019-03-24T02:21:13.027Z,36.47
2019-03-24T02:23:41.511Z,37.93
2019-03-24T02:26:10.017Z,36.43
2019-03-24T02:28:38.493Z,32.73
2019-03-24T02:31:06.999Z,32.50
2019-03-24T02:33:35.535Z,37.63
2019-03-24T02:36:04.031Z,34.23
2019-03-24T02:38:32.545Z,33.00
2019-03-24T02:41:01.061Z,38.80
2019-03-24T02:43:29.533Z,26.33
2019-03-24T02:45:58.055Z,28.97
2019-03-24T02:48:26.552Z,30.40
2019-03-24T02:50:55.062Z,30.93
2019-03-24T02:53:23.544Z,30.30
2019-03-24T02:55:52.043Z,26.50
2019-03-24T02:58:20.514Z,27.40
2019-03-24T03:00:49.032Z,26.43
2019-03-24T03:03:17.465Z,26.00
2019-03-24T03:05:45.955Z,26.50
2019-03-24T03:08:14.432Z,23.97
2019-03-24T03:10:42.928Z,26.17
2019-03-24T03:13:11.393Z,20.80
2019-03-24T03:15:39.893Z,22.53
2019-03-24T03:18:08.356Z,26.07
2019-03-24T03:20:36.871Z,26.17
2019-03-24T03:23:05.319Z,23.37
2019-03-24T03:25:33.825Z,28.33
2019-03-24T03:28:02.383Z,25.67
2019-03-24T03:30:30.868Z,26.83
2019-03-24T03:32:59.334Z,27.67
2019-03-24T03:35:27.838Z,19.67
2019-03-24T03:37:56.351Z,22.80
2019-03-24T03:40:25.486Z,27.53
2019-03-24T03:42:53.954Z,22.70
2019-03-24T03:45:27.365Z,22.43
2019-03-24T03:47:56.488Z,24.37
2019-03-24T03:50:24.967Z,17.87
2019-03-24T03:52:54.964Z,19.87
2019-03-24T03:55:23.463Z,25.63
2019-03-24T03:57:52.298Z,23.40
2019-03-24T04:00:23.833Z,22.43
2019-03-24T04:02:52.325Z,20.47
2019-03-24T04:05:20.794Z,23.13
2019-03-24T04:07:49.285Z,21.80
2019-03-24T04:10:17.775Z,23.37
2019-03-24T04:12:46.280Z,20.00
2019-03-24T04:15:14.764Z,24.63
2019-03-24T04:17:43.256Z,16.50
2019-03-24T04:20:11.818Z,21.00
2019-03-24T04:22:40.422Z,17.30
2019-03-24T04:25:08.969Z,22.47
2019-03-24T04:27:37.487Z,23.33
2019-03-24T04:30:07.691Z,25.73
2019-03-24T04:32:36.208Z,24.47
2019-03-24T04:35:07.008Z,26.13
2019-03-24T04:37:35.506Z,28.53
2019-03-24T04:40:05.918Z,20.13
2019-03-24T04:42:34.425Z,27.33
2019-03-24T04:45:02.948Z,22.83
2019-03-24T04:47:31.421Z,25.40
2019-03-24T04:49:59.956Z,23.27
2019-03-24T04:52:28.445Z,22.33
2019-03-24T04:54:56.927Z,25.93
2019-03-24T04:57:25.441Z,25.37
2019-03-24T04:59:53.891Z,20.27
2019-03-24T05:02:22.403Z,24.47
2019-03-24T05:04:50.876Z,22.43
2019-03-24T05:07:19.380Z,22.80
2019-03-24T05:09:47.871Z,25.10
2019-03-24T05:12:16.484Z,27.10
2019-03-24T05:14:44.978Z,23.07
2019-03-24T05:17:13.482Z,20.27
2019-03-24T05:19:41.960Z,24.03
2019-03-24T05:22:10.440Z,24.37
2019-03-24T05:24:38.927Z,20.33
2019-03-24T05:27:07.406Z,22.33
2019-03-24T05:29:35.906Z,20.70
2019-03-24T05:32:04.407Z,24.27
2019-03-24T05:34:32.845Z,30.70
2019-03-24T05:37:01.337Z,24.13
2019-03-24T05:39:29.813Z,16.87
2019-03-24T05:41:58.287Z,19.87
2019-03-24T05:44:26.772Z,20.90
2019-03-24T05:46:55.285Z,27.73
2019-03-24T05:49:23.788Z,22.77
2019-03-24T05:51:52.284Z,23.63
2019-03-24T05:54:20.768Z,17.83
2019-03-24T05:56:49.239Z,21.23
2019-03-24T05:59:17.725Z,21.13
2019-03-24T06:01:46.204Z,16.57
2019-03-24T06:04:14.691Z,19.30
2019-03-24T06:06:43.173Z,17.33
2019-03-24T06:09:11.679Z,17.87
2019-03-24T06:11:40.154Z,17.43
2019-03-24T06:14:08.647Z,20.60
2019-03-24T06:16:38.032Z,17.73
2019-03-24T06:19:06.599Z,19.93
2019-03-24T06:21:35.071Z,23.07
2019-03-24T06:24:03.564Z,28.83
2019-03-24T06:26:32.035Z,22.03
2019-03-24T06:29:00.527Z,23.30
2019-03-24T06:31:28.996Z,18.83
2019-03-24T06:33:57.509Z,15.83
2019-03-24T06:36:25.975Z,17.97
2019-03-24T06:38:54.518Z,18.27
2019-03-24T06:41:22.975Z,17.27
2019-03-24T06:43:51.459Z,18.57
2019-03-24T06:46:22.733Z,12.97
2019-03-24T06:48:51.234Z,20.90
2019-03-24T06:51:19.716Z,18.23
2019-03-24T06:53:48.236Z,15.10
2019-03-24T06:56:16.717Z,15.97
2019-03-24T06:58:45.218Z,13.33
2019-03-24T07:01:13.691Z,14.97
2019-03-24T07:03:42.183Z,14.93
2019-03-24T07:06:10.651Z,13.63
2019-03-24T07:08:39.138Z,17.47
2019-03-24T07:11:13.395Z,16.20
2019-03-24T07:13:37.837Z,19.10
2019-03-24T07:16:06.315Z,16.70
2019-03-24T07:18:34.817Z,14.43
2019-03-24T07:21:03.284Z,14.27
2019-03-24T07:23:31.758Z,17.73
2019-03-24T07:26:00.240Z,17.80
2019-03-24T07:28:28.727Z,13.57
2019-03-24T07:30:57.218Z,16.47
2019-03-24T07:33:25.687Z,15.13
2019-03-24T07:35:54.213Z,18.30
2019-03-24T07:38:22.693Z,14.23
2019-03-24T07:40:51.244Z,16.53
2019-03-24T07:43:19.756Z,23.00
2019-03-24T07:45:48.238Z,14.83
2019-03-24T07:48:19.396Z,9.53
2019-03-24T07:50:47.214Z,16.07
2019-03-24T07:53:15.781Z,13.50
2019-03-24T07:55:44.311Z,16.03
2019-03-24T07:58:12.795Z,16.70
2019-03-24T08:00:41.299Z,13.07
2019-03-24T08:03:10.145Z,13.33
2019-03-24T08:05:38.659Z,12.87
2019-03-24T08:08:07.167Z,12.00
2019-03-24T08:10:35.678Z,15.87
2019-03-24T08:13:04.306Z,15.60
2019-03-24T08:15:32.820Z,13.03
2019-03-24T08:18:01.373Z,12.77
2019-03-24T08:20:29.885Z,13.37
2019-03-24T08:22:58.398Z,11.57
2019-03-24T08:25:26.889Z,13.43
2019-03-24T08:27:55.366Z,12.30
2019-03-24T08:30:31.885Z,11.93
2019-03-24T08:33:00.370Z,13.77
2019-03-24T08:35:28.949Z,12.03
2019-03-24T08:37:57.436Z,14.63
2019-03-24T08:40:25.996Z,11.33
2019-03-24T08:42:54.506Z,15.03
2019-03-24T08:45:27.498Z,13.33
2019-03-24T08:47:57.128Z,13.27
2019-03-24T08:50:26.193Z,19.33
2019-03-24T08:52:54.751Z,13.47
2019-03-24T08:55:23.309Z,12.80
2019-03-24T08:57:51.793Z,11.87
2019-03-24T09:00:30.200Z,12.00
2019-03-24T09:02:50.599Z,11.63
2019-03-24T09:05:19.128Z,17.73
2019-03-24T09:07:47.637Z,16.03
2019-03-24T09:10:16.298Z,14.10
2019-03-24T09:12:44.775Z,12.17
2019-03-24T09:15:13.293Z,10.53
2019-03-24T09:17:41.875Z,14.50
2019-03-24T09:20:10.874Z,11.20
2019-03-24T09:22:39.365Z,11.20
2019-03-24T09:25:08.296Z,12.13
2019-03-24T09:27:36.804Z,10.03
2019-03-24T09:30:08.175Z,10.07
2019-03-24T09:32:36.681Z,12.40
2019-03-24T09:35:06.579Z,10.10
2019-03-24T09:37:35.083Z,10.73
2019-03-24T09:40:04.262Z,10.93
2019-03-24T09:42:32.789Z,11.93
2019-03-24T09:45:01.290Z,12.15
2019-03-24T09:47:29.795Z,11.40
2019-03-24T09:49:58.274Z,9.10
2019-03-24T09:52:26.779Z,9.88
2019-03-24T09:54:55.261Z,9.83
2019-03-24T09:57:23.767Z,9.65
2019-03-24T09:59:52.352Z,8.20
2019-03-24T10:02:20.806Z,9.08
2019-03-24T10:04:49.286Z,9.50
2019-03-24T10:07:17.785Z,8.20
2019-03-24T10:09:46.283Z,8.13
2019-03-24T10:12:14.832Z,7.00
2019-03-24T10:14:43.311Z,10.40
2019-03-24T10:17:11.811Z,10.65
2019-03-24T10:19:40.283Z,7.22
2019-03-24T10:22:08.771Z,8.28
2019-03-24T10:24:37.244Z,5.58
2019-03-24T10:27:05.733Z,6.00
2019-03-24T10:29:34.257Z,7.40
2019-03-24T10:32:02.754Z,6.17
2019-03-24T10:34:31.262Z,8.30
2019-03-24T10:36:59.718Z,8.50
2019-03-24T10:39:28.228Z,8.33
2019-03-24T10:41:56.773Z,8.63
2019-03-24T10:44:25.256Z,6.50
2019-03-24T10:46:53.736Z,6.78
2019-03-24T10:49:25.162Z,8.13
2019-03-24T10:51:52.449Z,7.80
2019-03-24T10:54:20.975Z,9.90
2019-03-24T10:56:49.455Z,9.95
2019-03-24T10:59:17.958Z,7.92
2019-03-24T11:01:46.439Z,14.78
2019-03-24T11:04:15.961Z,7.53
2019-03-24T11:06:45.385Z,10.68
2019-03-24T11:09:13.889Z,9.43
2019-03-24T11:11:42.523Z,10.23
2019-03-24T11:14:11.022Z,9.80
2019-03-24T11:16:39.545Z,8.33
2019-03-24T11:19:08.038Z,8.87
2019-03-24T11:21:36.522Z,11.93
2019-03-24T11:24:05.040Z,6.83
2019-03-24T11:26:34.508Z,8.97
2019-03-24T11:29:03.023Z,9.40
2019-03-24T11:31:31.501Z,8.43
2019-03-24T11:34:00.020Z,9.67
2019-03-24T11:36:28.514Z,10.13
2019-03-24T11:38:59.107Z,10.00
2019-03-24T11:41:27.232Z,6.20
2019-03-24T11:43:55.705Z,9.33
2019-03-24T11:46:24.216Z,8.47
2019-03-24T11:48:52.715Z,10.17
2019-03-24T11:51:21.191Z,10.60
2019-03-24T11:53:49.673Z,9.90
2019-03-24T11:56:18.158Z,10.03
2019-03-24T11:58:46.730Z,6.60
2019-03-24T12:01:15.387Z,9.63
2019-03-24T12:03:43.925Z,9.20
2019-03-24T12:06:14.704Z,6.03
2019-03-24T12:08:42.635Z,9.57
2019-03-24T12:11:11.099Z,8.37
2019-03-24T12:13:39.600Z,6.70
2019-03-24T12:16:08.086Z,9.70
2019-03-24T12:18:36.801Z,9.53
2019-03-24T12:21:05.278Z,9.73
2019-03-24T12:23:33.847Z,9.90
2019-03-24T12:26:02.401Z,9.20
2019-03-24T12:28:30.912Z,7.07
2019-03-24T12:30:59.389Z,6.20
2019-03-24T12:33:27.903Z,7.73
2019-03-24T12:35:56.387Z,9.70
2019-03-24T12:38:24.868Z,4.53
2019-03-24T12:40:53.359Z,10.13
2019-03-24T12:43:21.837Z,11.43
2019-03-24T12:45:50.420Z,7.90
2019-03-24T12:48:18.989Z,8.90
2019-03-24T12:50:47.478Z,7.00
2019-03-24T12:53:15.958Z,9.70
2019-03-24T12:55:44.448Z,9.33
2019-03-24T12:58:12.915Z,8.17
2019-03-24T13:00:41.757Z,6.40
2019-03-24T13:03:11.603Z,11.00
2019-03-24T13:05:40.232Z,6.67
2019-03-24T13:08:16.719Z,10.93
2019-03-24T13:10:45.970Z,7.03
2019-03-24T13:13:15.873Z,6.77
2019-03-24T13:15:44.464Z,7.43
2019-03-24T13:18:12.966Z,9.37
2019-03-24T13:20:41.658Z,9.50
2019-03-24T13:23:10.403Z,8.77
2019-03-24T13:25:38.918Z,8.30
2019-03-24T13:28:07.394Z,6.87
2019-03-24T13:30:35.897Z,10.65
2019-03-24T13:33:04.516Z,4.83
2019-03-24T13:35:32.997Z,6.03
2019-03-24T13:38:01.496Z,9.90
2019-03-24T13:40:30.026Z,7.40
2019-03-24T13:42:58.538Z,6.13
2019-03-24T13:45:27.039Z,6.13
2019-03-24T13:47:55.525Z,8.53
2019-03-24T13:50:31.377Z,7.20
2019-03-24T13:52:54.238Z,7.87
2019-03-24T13:55:22.916Z,9.07
2019-03-24T13:57:51.494Z,7.80
2019-03-24T14:00:20.954Z,6.23
2019-03-24T14:02:49.439Z,8.47
2019-03-24T14:05:17.961Z,8.73
2019-03-24T14:07:46.463Z,5.80
2019-03-24T14:10:14.980Z,7.47
2019-03-24T14:12:43.520Z,7.10
2019-03-24T14:15:12.343Z,11.83
2019-03-24T14:17:40.768Z,10.37
2019-03-24T14:20:09.520Z,8.13
2019-03-24T14:22:38.014Z,6.93
2019-03-24T14:25:08.159Z,7.10
2019-03-24T14:27:36.633Z,7.47
2019-03-24T14:30:08.729Z,9.40
2019-03-24T14:32:37.213Z,9.33
2019-03-24T14:35:06.652Z,7.70
2019-03-24T14:37:35.167Z,11.60
2019-03-24T14:40:05.678Z,8.70
2019-03-24T14:42:34.203Z,8.50
2019-03-24T14:45:02.680Z,8.83
2019-03-24T14:47:31.176Z,11.47
2019-03-24T14:49:59.645Z,12.60
2019-03-24T14:52:28.158Z,8.40
2019-03-24T14:54:56.640Z,9.17
2019-03-24T14:57:25.144Z,12.33
2019-03-24T14:59:53.625Z,11.13
2019-03-24T15:02:22.114Z,6.53
2019-03-24T15:04:50.592Z,9.20
2019-03-24T15:07:19.104Z,8.13
2019-03-24T15:09:47.578Z,7.13
2019-03-24T15:12:16.086Z,7.63
2019-03-24T15:14:44.562Z,7.90
2019-03-24T15:17:13.147Z,10.43
2019-03-24T15:19:41.630Z,6.70
2019-03-24T15:22:10.143Z,8.23
2019-03-24T15:24:38.619Z,9.70
2019-03-24T15:27:07.178Z,10.70
2019-03-24T15:29:35.664Z,11.77
2019-03-24T15:32:04.151Z,7.13
2019-03-24T15:34:32.627Z,7.80
2019-03-24T15:37:01.141Z,7.93
2019-03-24T15:39:29.626Z,11.13
2019-03-24T15:41:58.119Z,8.13
2019-03-24T15:44:26.600Z,8.93
2019-03-24T15:46:55.092Z,10.57
2019-03-24T15:49:23.562Z,10.73
2019-03-24T15:51:52.052Z,8.07
2019-03-24T15:54:20.529Z,10.87
2019-03-24T15:56:49.041Z,10.47
2019-03-24T15:59:17.572Z,9.03
2019-03-24T16:01:46.071Z,11.30
2019-03-24T16:04:14.552Z,10.53
2019-03-24T16:06:43.043Z,11.07
2019-03-24T16:09:11.549Z,9.77
2019-03-24T16:11:40.037Z,9.93
2019-03-24T16:14:08.542Z,10.07
2019-03-24T16:16:37.035Z,10.03
2019-03-24T16:19:05.537Z,8.67
2019-03-24T16:21:34.013Z,10.23
2019-03-24T16:24:02.511Z,8.80
2019-03-24T16:26:31.008Z,9.03
2019-03-24T16:28:59.541Z,7.43
2019-03-24T16:31:28.010Z,8.90
2019-03-24T16:33:56.507Z,10.10
2019-03-24T16:36:24.987Z,12.10
2019-03-24T16:39:03.155Z,8.23
2019-03-24T16:41:23.690Z,8.53
2019-03-24T16:43:52.200Z,10.40
2019-03-24T16:46:20.681Z,10.30
2019-03-24T16:48:49.191Z,9.30
2019-03-24T16:51:17.663Z,10.40
2019-03-24T16:53:46.210Z,11.83
2019-03-24T16:56:14.675Z,11.40
2019-03-24T16:58:43.184Z,10.80
2019-03-24T17:01:11.671Z,7.43
2019-03-24T17:03:40.163Z,12.70
2019-03-24T17:06:10.162Z,9.53
2019-03-24T17:08:38.825Z,9.67
2019-03-24T17:11:07.287Z,10.07
2019-03-24T17:13:35.790Z,13.27
2019-03-24T17:16:23.657Z,11.20
2019-03-24T17:18:52.180Z,9.97
2019-03-24T17:21:20.636Z,9.07
2019-03-24T17:23:49.219Z,13.50
2019-03-24T17:26:17.693Z,10.33
2019-03-24T17:28:47.084Z,11.97
2019-03-24T17:31:15.742Z,8.60
2019-03-24T17:33:44.246Z,9.97
2019-03-24T17:36:12.746Z,8.97
2019-03-24T17:38:41.223Z,8.97
2019-03-24T17:41:09.707Z,10.70
2019-03-24T17:43:38.196Z,11.87
2019-03-24T17:46:06.679Z,11.87
2019-03-24T17:48:35.187Z,7.37
2019-03-24T17:51:03.725Z,10.97
2019-03-24T17:53:32.221Z,15.50
2019-03-24T17:56:00.682Z,8.23
2019-03-24T17:58:29.183Z,10.20
2019-03-24T18:00:58.025Z,9.13
2019-03-24T18:03:26.538Z,9.40
2019-03-24T18:05:55.000Z,8.00
2019-03-24T18:08:23.511Z,8.00
2019-03-24T18:10:51.988Z,7.90
2019-03-24T18:13:20.466Z,12.37
2019-03-24T18:15:48.956Z,9.57
2019-03-24T18:18:17.459Z,8.57
2019-03-24T18:20:45.928Z,8.47
2019-03-24T18:23:14.409Z,9.40
2019-03-24T18:25:42.927Z,11.03
2019-03-24T18:28:11.390Z,8.77
2019-03-24T18:30:39.889Z,11.07
2019-03-24T18:33:08.422Z,9.40
2019-03-24T18:35:36.922Z,9.27
2019-03-24T18:38:05.771Z,9.80
2019-03-24T18:40:34.331Z,6.67
2019-03-24T18:43:02.878Z,10.50
2019-03-24T18:45:31.376Z,9.00
2019-03-24T18:47:59.856Z,12.23
2019-03-24T18:50:28.354Z,8.10
2019-03-24T18:52:56.915Z,8.47
2019-03-24T18:55:25.489Z,11.60
2019-03-24T18:57:53.970Z,11.87
2019-03-24T19:00:22.613Z,10.83
2019-03-24T19:02:51.089Z,11.40
2019-03-24T19:05:19.584Z,10.03
2019-03-24T19:07:48.135Z,8.90
2019-03-24T19:10:17.128Z,8.27
2019-03-24T19:12:45.731Z,11.80
2019-03-24T19:15:16.248Z,11.53
2019-03-24T19:17:45.071Z,10.37
2019-03-24T19:20:14.093Z,13.67
2019-03-24T19:22:42.714Z,13.67
2019-03-24T19:25:11.571Z,14.37
2019-03-24T19:27:40.242Z,13.27
2019-03-24T19:30:11.784Z,11.80
2019-03-24T19:32:40.322Z,12.50
2019-03-24T19:35:09.372Z,11.80
2019-03-24T19:37:38.082Z,13.20
2019-03-24T19:40:09.624Z,12.97
2019-03-24T19:42:38.101Z,15.90
2019-03-24T19:45:06.955Z,13.37
2019-03-24T19:47:35.436Z,13.00
2019-03-24T19:50:05.691Z,9.23
2019-03-24T19:52:44.348Z,14.90
2019-03-24T19:55:06.507Z,9.37
2019-03-24T19:57:34.971Z,11.17
2019-03-24T20:00:04.122Z,11.67
2019-03-24T20:02:32.586Z,11.23
2019-03-24T20:05:01.103Z,10.43
2019-03-24T20:07:29.580Z,11.57
2019-03-24T20:09:58.052Z,9.20
2019-03-24T20:12:26.563Z,10.53
2019-03-24T20:14:55.008Z,9.10
2019-03-24T20:17:23.504Z,11.20
2019-03-24T20:19:51.972Z,9.77
2019-03-24T20:22:20.481Z,11.97
2019-03-24T20:24:48.973Z,11.47
2019-03-24T20:27:17.467Z,11.67
2019-03-24T20:29:45.947Z,10.07
2019-03-24T20:32:14.433Z,10.43
2019-03-24T20:34:42.913Z,15.00
2019-03-24T20:37:11.413Z,12.93
2019-03-24T20:39:39.876Z,16.87
2019-03-24T20:42:08.413Z,12.50
2019-03-24T20:44:36.997Z,8.97
2019-03-24T20:47:05.564Z,11.30
2019-03-24T20:49:34.043Z,11.60
2019-03-24T20:52:02.546Z,14.83
2019-03-24T20:54:31.032Z,11.13
2019-03-24T20:56:59.530Z,12.23
2019-03-24T20:59:28.007Z,10.23
2019-03-24T21:01:56.583Z,10.80
2019-03-24T21:04:25.123Z,10.60
2019-03-24T21:06:53.640Z,9.97
2019-03-24T21:09:22.125Z,11.90
2019-03-24T21:11:50.625Z,16.47
2019-03-24T21:14:19.166Z,11.03
2019-03-24T21:16:47.686Z,12.60
2019-03-24T21:19:16.165Z,9.33
2019-03-24T21:21:44.652Z,10.17
2019-03-24T21:24:13.123Z,11.97
2019-03-24T21:26:41.605Z,12.70
2019-03-24T21:29:10.071Z,10.37
2019-03-24T21:31:38.575Z,10.17
2019-03-24T21:34:07.059Z,13.23
2019-03-24T21:36:35.538Z,9.50
2019-03-24T21:39:05.926Z,12.57
2019-03-24T21:41:34.445Z,9.67
2019-03-24T21:44:02.923Z,8.80
2019-03-24T21:46:31.404Z,9.73
2019-03-24T21:48:59.896Z,9.60
2019-03-24T21:51:28.433Z,10.20
2019-03-24T21:53:56.912Z,13.93
2019-03-24T21:56:25.392Z,11.47
2019-03-24T21:58:53.897Z,11.87
2019-03-24T22:01:22.452Z,12.33
2019-03-24T22:03:50.949Z,11.47
2019-03-24T22:06:19.420Z,10.27
2019-03-24T22:08:47.917Z,12.13
2019-03-24T22:11:16.395Z,13.30
2019-03-24T22:13:44.921Z,15.20
2019-03-24T22:16:13.561Z,9.03
2019-03-24T22:18:42.058Z,10.70
2019-03-24T22:21:10.523Z,11.40
2019-03-24T22:23:39.030Z,13.83
2019-03-24T22:26:07.505Z,14.40
2019-03-24T22:28:36.010Z,13.20
2019-03-24T22:31:04.490Z,12.57
2019-03-24T22:33:32.979Z,12.53
2019-03-24T22:36:01.522Z,11.63
2019-03-24T22:38:30.632Z,14.47
2019-03-24T22:40:59.111Z,12.00
2019-03-24T22:43:27.640Z,12.87
2019-03-24T22:45:56.096Z,9.10
2019-03-24T22:48:24.579Z,12.63
2019-03-24T22:50:53.063Z,11.33
2019-03-24T22:53:21.567Z,11.60
2019-03-24T22:55:50.030Z,13.63
2019-03-24T22:58:18.532Z,12.10
2019-03-24T23:00:54.466Z,15.07
2019-03-24T23:03:25.129Z,13.87
2019-03-24T23:05:53.895Z,12.03
2019-03-24T23:08:22.413Z,18.70
2019-03-24T23:10:50.894Z,12.40
2019-03-24T23:13:19.382Z,16.13
2019-03-24T23:15:47.861Z,19.53
2019-03-24T23:18:16.356Z,14.30
2019-03-24T23:20:44.826Z,17.37
2019-03-24T23:23:13.336Z,14.83
2019-03-24T23:25:41.800Z,18.43
2019-03-24T23:28:10.370Z,15.77
2019-03-24T23:30:38.876Z,17.93
2019-03-24T23:33:07.384Z,14.63
2019-03-24T23:35:35.929Z,14.30
2019-03-24T23:38:04.600Z,14.80
2019-03-24T23:40:33.087Z,11.73
2019-03-24T23:43:01.613Z,12.77
2019-03-24T23:45:30.083Z,17.43
2019-03-24T23:47:58.571Z,16.43
2019-03-24T23:50:27.093Z,11.67
2019-03-24T23:52:55.639Z,13.57
2019-03-24T23:55:24.135Z,13.47
2019-03-24T23:57:52.608Z,13.73
